Check out our new PWSWeather beta!
PWSweather.com
Personal Weather Stations
Station Observations
SHAHALMS1
Eftra, Falkenberg, HA

EftraFalkenberg, HA

Lat: 56.85, Lon: 12.65

Elevation: 140

Station Type:

http://hem.passagen.se/risarp101

High Low Average
Temperature 71.8°F22.1°C 54.3°F12.4°C 63.5°F17.5°C
Dew Point 62.2°F16.8°C 51.7°F10.9°C 56.5°F13.6°C
Winds 6.2 mph 10.0 kmh Calm Calm 2.0 mph SE3.2 kmh SE
Wind Gusts 14.0 mph22.5 kmh -- 5.0 mph8.0 kmh
Humidity 95% 62% 79%
Pressure 29.92 in1013.2 mb 29.68 in1005.1 mb -
Precipitation 0.28 in7.1 mm - -
Hour Temp Dew Point Humidity Winds Wind Gusts Pressure Precip Precip Rate Daily Precip Total
12:00 AM 59.7°F15.4°C 56.5°F13.6°C 89% 2.0 mph WNW3.2 kmh WNW 6.1 mph9.8 kmh 29.71 in1006.1 mb 0.05 in1.3 mm 0.00 in0.0 mm 0.05 in1.3 mm
12:10 AM 59.7°F15.4°C 56.5°F13.6°C 89% 1.2 mph W1.9 kmh W 5.7 mph9.2 kmh 29.71 in1006.1 mb 0.05 in1.3 mm 0.00 in0.0 mm 0.05 in1.3 mm
12:20 AM 59.7°F15.4°C 56.5°F13.6°C 89% 0.5 mph NW0.8 kmh NW 3.9 mph6.3 kmh 29.68 in1005.1 mb 0.05 in1.3 mm 0.00 in0.0 mm 0.05 in1.3 mm
12:30 AM 59.9°F15.5°C 56.6°F13.7°C 89% 2.4 mph W3.9 kmh W 7.9 mph12.7 kmh 29.68 in1005.1 mb 0.19 in4.8 mm 0.84 in21.3 mm 0.18 in4.6 mm
12:40 AM 59.7°F15.4°C 56.5°F13.6°C 89% 0.3 mph W0.5 kmh W 3.6 mph5.8 kmh 29.68 in1005.1 mb 0.28 in7.1 mm 0.54 in13.7 mm 0.28 in7.1 mm
12:50 AM 59.5°F15.3°C 56.6°F13.7°C 90% Calm Calm -- 29.71 in1006.1 mb 0.28 in7.1 mm 0.00 in0.0 mm 0.28 in7.1 mm
01:00 AM 59.5°F15.3°C 56.6°F13.7°C 90% Calm Calm -- 29.68 in1005.1 mb 0.23 in5.8 mm 0.00 in0.0 mm 0.28 in7.1 mm
01:10 AM 59.5°F15.3°C 56.6°F13.7°C 90% Calm Calm -- 29.68 in1005.1 mb 0.23 in5.8 mm 0.00 in0.0 mm 0.28 in7.1 mm
01:20 AM 59.4°F15.2°C 56.4°F13.6°C 90% Calm Calm -- 29.71 in1006.1 mb 0.19 in4.8 mm 0.00 in0.0 mm 0.28 in7.1 mm
01:30 AM 59.2°F15.1°C 56.2°F13.4°C 90% Calm Calm -- 29.71 in1006.1 mb 0.05 in1.3 mm 0.00 in0.0 mm 0.28 in7.1 mm
01:40 AM 59.0°F15.0°C 56.1°F13.4°C 90% Calm Calm -- 29.71 in1006.1 mb 0.00 in0.0 mm 0.00 in0.0 mm 0.28 in7.1 mm
01:50 AM 58.6°F14.8°C 55.7°F13.2°C 90% Calm Calm -- 29.71 in1006.1 mb 0.00 in0.0 mm 0.00 in0.0 mm 0.28 in7.1 mm
02:00 AM 58.5°F14.7°C 55.5°F13.1°C 90% Calm Calm -- 29.71 in1006.1 mb 0.00 in0.0 mm 0.00 in0.0 mm 0.28 in7.1 mm
02:10 AM 58.3°F14.6°C 55.4°F13.0°C 90% Calm Calm -- 29.71 in1006.1 mb 0.00 in0.0 mm 0.00 in0.0 mm 0.28 in7.1 mm
02:20 AM 57.9°F14.4°C 55.0°F12.8°C 90% Calm Calm -- 29.71 in1006.1 mb 0.00 in0.0 mm 0.00 in0.0 mm 0.28 in7.1 mm
02:30 AM 57.6°F14.2°C 54.6°F12.6°C 90% Calm Calm -- 29.74 in1007.1 mb 0.00 in0.0 mm 0.00 in0.0 mm 0.28 in7.1 mm
02:40 AM 57.0°F13.9°C 53.8°F12.1°C 89% Calm Calm -- 29.74 in1007.1 mb 0.00 in0.0 mm 0.00 in0.0 mm 0.28 in7.1 mm
02:50 AM 56.5°F13.6°C 53.3°F11.8°C 89% Calm Calm -- 29.71 in1006.1 mb 0.00 in0.0 mm 0.00 in0.0 mm 0.28 in7.1 mm
03:00 AM 56.3°F13.5°C 53.4°F11.9°C 90% Calm Calm 1.4 mph2.3 kmh 29.74 in1007.1 mb 0.00 in0.0 mm 0.00 in0.0 mm 0.28 in7.1 mm
03:10 AM 56.1°F13.4°C 53.2°F11.8°C 90% Calm Calm -- 29.74 in1007.1 mb 0.00 in0.0 mm 0.00 in0.0 mm 0.28 in7.1 mm
03:20 AM 55.8°F13.2°C 52.9°F11.6°C 90% Calm Calm 1.4 mph2.3 kmh 29.74 in1007.1 mb 0.00 in0.0 mm 0.00 in0.0 mm 0.28 in7.1 mm
03:30 AM 55.6°F13.1°C 52.7°F11.5°C 90% 0.1 mph E0.2 kmh E 1.8 mph2.9 kmh 29.77 in1008.1 mb 0.00 in0.0 mm 0.00 in0.0 mm 0.28 in7.1 mm
03:40 AM 55.4°F13.0°C 52.5°F11.4°C 90% 0.1 mph E0.2 kmh E 2.5 mph4.0 kmh 29.77 in1008.1 mb 0.00 in0.0 mm 0.00 in0.0 mm 0.28 in7.1 mm
03:50 AM 55.0°F12.8°C 52.2°F11.2°C 90% Calm Calm -- 29.74 in1007.1 mb 0.00 in0.0 mm 0.00 in0.0 mm 0.28 in7.1 mm
04:00 AM 54.9°F12.7°C 52.0°F11.1°C 90% Calm Calm -- 29.77 in1008.1 mb 0.00 in0.0 mm 0.00 in0.0 mm 0.28 in7.1 mm
04:10 AM 54.9°F12.7°C 52.3°F11.3°C 91% 0.7 mph E1.1 kmh E 5.4 mph8.7 kmh 29.77 in1008.1 mb 0.00 in0.0 mm 0.00 in0.0 mm 0.28 in7.1 mm
04:20 AM 54.7°F12.6°C 52.1°F11.2°C 91% 0.2 mph E0.3 kmh E 3.2 mph5.1 kmh 29.77 in1008.1 mb 0.00 in0.0 mm 0.00 in0.0 mm 0.28 in7.1 mm
04:30 AM 54.7°F12.6°C 52.1°F11.2°C 91% Calm Calm -- 29.77 in1008.1 mb 0.00 in0.0 mm 0.00 in0.0 mm 0.28 in7.1 mm
04:40 AM 54.5°F12.5°C 51.9°F11.1°C 91% Calm Calm -- 29.77 in1008.1 mb 0.00 in0.0 mm 0.00 in0.0 mm 0.28 in7.1 mm
04:50 AM 54.3°F12.4°C 51.7°F10.9°C 91% 0.3 mph E0.5 kmh E 3.2 mph5.1 kmh 29.77 in1008.1 mb 0.00 in0.0 mm 0.00 in0.0 mm 0.28 in7.1 mm
05:00 AM 54.5°F12.5°C 52.2°F11.2°C 92% 1.3 mph E2.1 kmh E 4.7 mph7.6 kmh 29.77 in1008.1 mb 0.00 in0.0 mm 0.00 in0.0 mm 0.28 in7.1 mm
05:10 AM 54.7°F12.6°C 52.4°F11.3°C 92% 0.5 mph E0.8 kmh E 4.7 mph7.6 kmh 29.77 in1008.1 mb 0.00 in0.0 mm 0.00 in0.0 mm 0.28 in7.1 mm
05:20 AM 54.9°F12.7°C 52.6°F11.4°C 92% Calm Calm -- 29.77 in1008.1 mb 0.00 in0.0 mm 0.00 in0.0 mm 0.28 in7.1 mm
05:30 AM 55.2°F12.9°C 53.2°F11.8°C 93% 0.1 mph E0.2 kmh E 1.8 mph2.9 kmh 29.74 in1007.1 mb 0.00 in0.0 mm 0.00 in0.0 mm 0.28 in7.1 mm
05:40 AM 55.4°F13.0°C 53.4°F11.9°C 93% Calm Calm -- 29.74 in1007.1 mb 0.00 in0.0 mm 0.00 in0.0 mm 0.28 in7.1 mm
05:50 AM 55.8°F13.2°C 53.8°F12.1°C 93% Calm Calm -- 29.77 in1008.1 mb 0.00 in0.0 mm 0.00 in0.0 mm 0.28 in7.1 mm
06:00 AM 56.1°F13.4°C 54.1°F12.3°C 93% Calm Calm -- 29.77 in1008.1 mb 0.00 in0.0 mm 0.00 in0.0 mm 0.28 in7.1 mm
06:10 AM 56.5°F13.6°C 54.8°F12.7°C 94% Calm Calm -- 29.77 in1008.1 mb 0.00 in0.0 mm 0.00 in0.0 mm 0.28 in7.1 mm
06:20 AM 56.8°F13.8°C 55.1°F12.8°C 94% Calm Calm -- 29.80 in1009.1 mb 0.00 in0.0 mm 0.00 in0.0 mm 0.28 in7.1 mm
06:30 AM 57.2°F14.0°C 55.5°F13.1°C 94% Calm Calm -- 29.77 in1008.1 mb 0.00 in0.0 mm 0.00 in0.0 mm 0.28 in7.1 mm
06:40 AM 57.9°F14.4°C 56.2°F13.4°C 94% Calm Calm -- 29.77 in1008.1 mb 0.00 in0.0 mm 0.00 in0.0 mm 0.28 in7.1 mm
06:50 AM 58.6°F14.8°C 57.2°F14.0°C 95% Calm Calm -- 29.80 in1009.1 mb 0.00 in0.0 mm 0.00 in0.0 mm 0.28 in7.1 mm
07:00 AM 59.5°F15.3°C 58.1°F14.5°C 95% Calm Calm -- 29.80 in1009.1 mb 0.00 in0.0 mm 0.00 in0.0 mm 0.28 in7.1 mm
07:10 AM 60.1°F15.6°C 58.6°F14.8°C 95% Calm Calm -- 29.80 in1009.1 mb 0.00 in0.0 mm 0.00 in0.0 mm 0.28 in7.1 mm
07:20 AM 61.0°F16.1°C 59.5°F15.3°C 95% Calm Calm -- 29.80 in1009.1 mb 0.00 in0.0 mm 0.00 in0.0 mm 0.28 in7.1 mm
07:30 AM 61.9°F16.6°C 60.4°F15.8°C 95% Calm Calm -- 29.80 in1009.1 mb 0.00 in0.0 mm 0.00 in0.0 mm 0.28 in7.1 mm
07:40 AM 62.8°F17.1°C 61.3°F16.3°C 95% Calm Calm -- 29.80 in1009.1 mb 0.00 in0.0 mm 0.00 in0.0 mm 0.28 in7.1 mm
07:50 AM 63.9°F17.7°C 62.1°F16.7°C 94% Calm Calm 1.4 mph2.3 kmh 29.83 in1010.2 mb 0.00 in0.0 mm 0.00 in0.0 mm 0.28 in7.1 mm
08:00 AM 64.6°F18.1°C 62.2°F16.8°C 92% Calm Calm -- 29.80 in1009.1 mb 0.00 in0.0 mm 0.00 in0.0 mm 0.28 in7.1 mm
08:10 AM 64.8°F18.2°C 61.4°F16.3°C 89% 1.2 mph N1.9 kmh N 5.7 mph9.2 kmh 29.80 in1009.1 mb 0.00 in0.0 mm 0.00 in0.0 mm 0.28 in7.1 mm
08:20 AM 65.1°F18.4°C 61.5°F16.4°C 88% 0.9 mph N1.4 kmh N 5.0 mph8.0 kmh 29.80 in1009.1 mb 0.00 in0.0 mm 0.00 in0.0 mm 0.28 in7.1 mm
08:30 AM 65.7°F18.7°C 62.0°F16.7°C 88% 0.3 mph E0.5 kmh E 3.9 mph6.3 kmh 29.80 in1009.1 mb 0.00 in0.0 mm 0.00 in0.0 mm 0.28 in7.1 mm
08:40 AM 66.0°F18.9°C 61.7°F16.5°C 86% 0.7 mph N1.1 kmh N 5.0 mph8.0 kmh 29.80 in1009.1 mb 0.00 in0.0 mm 0.00 in0.0 mm 0.28 in7.1 mm
08:50 AM 66.0°F18.9°C 60.4°F15.8°C 82% 3.6 mph N5.8 kmh N 9.7 mph15.6 kmh 29.80 in1009.1 mb 0.00 in0.0 mm 0.00 in0.0 mm 0.28 in7.1 mm
09:00 AM 66.2°F19.0°C 59.5°F15.3°C 79% 4.5 mph N7.2 kmh N 10.0 mph16.1 kmh 29.80 in1009.1 mb 0.00 in0.0 mm 0.00 in0.0 mm 0.28 in7.1 mm
09:10 AM 66.6°F19.2°C 59.1°F15.1°C 77% 2.0 mph N3.2 kmh N 8.9 mph14.3 kmh 29.80 in1009.1 mb 0.00 in0.0 mm 0.00 in0.0 mm 0.28 in7.1 mm
09:20 AM 67.1°F19.5°C 59.6°F15.3°C 77% 3.1 mph NW5.0 kmh NW 11.8 mph19.0 kmh 29.83 in1010.2 mb 0.00 in0.0 mm 0.00 in0.0 mm 0.28 in7.1 mm
09:30 AM 67.3°F19.6°C 59.1°F15.1°C 75% 2.1 mph NNW3.4 kmh NNW 6.8 mph10.9 kmh 29.83 in1010.2 mb 0.00 in0.0 mm 0.00 in0.0 mm 0.28 in7.1 mm
09:40 AM 67.6°F19.8°C 59.1°F15.1°C 74% 1.6 mph NW2.6 kmh NW 9.7 mph15.6 kmh 29.83 in1010.2 mb 0.00 in0.0 mm 0.00 in0.0 mm 0.28 in7.1 mm
09:50 AM 67.6°F19.8°C 57.5°F14.2°C 70% 3.3 mph N5.3 kmh N 9.7 mph15.6 kmh 29.83 in1010.2 mb 0.00 in0.0 mm 0.00 in0.0 mm 0.28 in7.1 mm
10:00 AM 67.8°F19.9°C 56.9°F13.8°C 68% 2.3 mph NNW3.7 kmh NNW 8.6 mph13.8 kmh 29.83 in1010.2 mb 0.00 in0.0 mm 0.00 in0.0 mm 0.28 in7.1 mm
10:10 AM 67.8°F19.9°C 56.9°F13.8°C 68% 2.6 mph NW4.2 kmh NW 8.9 mph14.3 kmh 29.83 in1010.2 mb 0.00 in0.0 mm 0.00 in0.0 mm 0.28 in7.1 mm
10:20 AM 68.7°F20.4°C 57.7°F14.3°C 68% 1.4 mph SSW2.3 kmh SSW 9.3 mph15.0 kmh 29.83 in1010.2 mb 0.00 in0.0 mm 0.00 in0.0 mm 0.28 in7.1 mm
10:30 AM 68.9°F20.5°C 57.9°F14.4°C 68% 4.4 mph WSW7.1 kmh WSW 9.7 mph15.6 kmh 29.83 in1010.2 mb 0.00 in0.0 mm 0.00 in0.0 mm 0.28 in7.1 mm
10:40 AM 69.6°F20.9°C 59.4°F15.2°C 70% 1.7 mph SW2.7 kmh SW 8.6 mph13.8 kmh 29.83 in1010.2 mb 0.00 in0.0 mm 0.00 in0.0 mm 0.28 in7.1 mm
10:50 AM 69.6°F20.9°C 58.6°F14.8°C 68% 3.6 mph WNW5.8 kmh WNW 10.0 mph16.1 kmh 29.83 in1010.2 mb 0.00 in0.0 mm 0.00 in0.0 mm 0.28 in7.1 mm
11:00 AM 70.0°F21.1°C 59.3°F15.2°C 69% 2.5 mph WNW4.0 kmh WNW 9.7 mph15.6 kmh 29.86 in1011.2 mb 0.00 in0.0 mm 0.00 in0.0 mm 0.28 in7.1 mm
11:10 AM 70.3°F21.3°C 59.3°F15.2°C 68% 2.8 mph SSW4.5 kmh SSW 7.9 mph12.7 kmh 29.86 in1011.2 mb 0.00 in0.0 mm 0.00 in0.0 mm 0.28 in7.1 mm
11:20 AM 70.9°F21.6°C 59.4°F15.2°C 67% 4.7 mph SW7.6 kmh SW 10.0 mph16.1 kmh 29.86 in1011.2 mb 0.00 in0.0 mm 0.00 in0.0 mm 0.28 in7.1 mm
11:30 AM 71.8°F22.1°C 59.4°F15.2°C 65% 3.3 mph WSW5.3 kmh WSW 11.5 mph18.5 kmh 29.89 in1012.2 mb 0.00 in0.0 mm 0.00 in0.0 mm 0.28 in7.1 mm
11:40 AM 71.8°F22.1°C 58.9°F14.9°C 64% 4.2 mph WSW6.8 kmh WSW 11.1 mph17.9 kmh 29.89 in1012.2 mb 0.00 in0.0 mm 0.00 in0.0 mm 0.28 in7.1 mm
11:50 AM 71.4°F21.9°C 57.7°F14.3°C 62% 3.5 mph W5.6 kmh W 10.4 mph16.7 kmh 29.89 in1012.2 mb 0.00 in0.0 mm 0.00 in0.0 mm 0.28 in7.1 mm
12:00 PM 71.2°F21.8°C 58.0°F14.4°C 63% 4.2 mph SW6.8 kmh SW 12.5 mph20.1 kmh 29.89 in1012.2 mb 0.00 in0.0 mm 0.00 in0.0 mm 0.28 in7.1 mm
12:10 PM 71.1°F21.7°C 57.4°F14.1°C 62% 5.1 mph WSW8.2 kmh WSW 11.8 mph19.0 kmh 29.89 in1012.2 mb 0.00 in0.0 mm 0.00 in0.0 mm 0.28 in7.1 mm
12:20 PM 71.1°F21.7°C 57.8°F14.3°C 63% 3.6 mph WSW5.8 kmh WSW 12.2 mph19.6 kmh 29.89 in1012.2 mb 0.00 in0.0 mm 0.00 in0.0 mm 0.28 in7.1 mm
12:30 PM 71.1°F21.7°C 57.8°F14.3°C 63% 4.3 mph WSW6.9 kmh WSW 12.2 mph19.6 kmh 29.89 in1012.2 mb 0.00 in0.0 mm 0.00 in0.0 mm 0.28 in7.1 mm
12:40 PM 71.1°F21.7°C 58.3°F14.6°C 64% 5.0 mph WSW8.0 kmh WSW 12.9 mph20.8 kmh 29.89 in1012.2 mb 0.00 in0.0 mm 0.00 in0.0 mm 0.28 in7.1 mm
12:50 PM 70.7°F21.5°C 57.9°F14.4°C 64% 3.8 mph WSW6.1 kmh WSW 10.0 mph16.1 kmh 29.89 in1012.2 mb 0.00 in0.0 mm 0.00 in0.0 mm 0.28 in7.1 mm
01:00 PM 70.5°F21.4°C 57.8°F14.3°C 64% 5.3 mph W8.5 kmh W 12.5 mph20.1 kmh 29.86 in1011.2 mb 0.00 in0.0 mm 0.00 in0.0 mm 0.28 in7.1 mm
01:10 PM 70.3°F21.3°C 57.6°F14.2°C 64% 4.3 mph SW6.9 kmh SW 13.6 mph21.9 kmh 29.86 in1011.2 mb 0.00 in0.0 mm 0.00 in0.0 mm 0.28 in7.1 mm
01:20 PM 70.5°F21.4°C 58.2°F14.6°C 65% 3.9 mph WSW6.3 kmh WSW 9.7 mph15.6 kmh 29.86 in1011.2 mb 0.00 in0.0 mm 0.00 in0.0 mm 0.28 in7.1 mm
01:30 PM 70.9°F21.6°C 58.1°F14.5°C 64% 4.6 mph SW7.4 kmh SW 14.0 mph22.5 kmh 29.86 in1011.2 mb 0.00 in0.0 mm 0.00 in0.0 mm 0.28 in7.1 mm
01:40 PM 71.4°F21.9°C 59.0°F15.0°C 65% 5.5 mph WSW8.9 kmh WSW 12.5 mph20.1 kmh 29.86 in1011.2 mb 0.00 in0.0 mm 0.00 in0.0 mm 0.28 in7.1 mm
01:50 PM 71.4°F21.9°C 59.0°F15.0°C 65% 6.2 mph WSW10.0 kmh WSW 14.0 mph22.5 kmh 29.89 in1012.2 mb 0.00 in0.0 mm 0.00 in0.0 mm 0.28 in7.1 mm
02:00 PM 71.4°F21.9°C 58.6°F14.8°C 64% 5.2 mph S8.4 kmh S 11.5 mph18.5 kmh 29.89 in1012.2 mb 0.00 in0.0 mm 0.00 in0.0 mm 0.28 in7.1 mm
02:10 PM 71.6°F22.0°C 57.9°F14.4°C 62% 5.6 mph SW9.0 kmh SW 10.0 mph16.1 kmh 29.89 in1012.2 mb 0.00 in0.0 mm 0.00 in0.0 mm 0.28 in7.1 mm
02:20 PM 71.4°F21.9°C 58.2°F14.6°C 63% 3.5 mph W5.6 kmh W 12.2 mph19.6 kmh 29.89 in1012.2 mb 0.00 in0.0 mm 0.00 in0.0 mm 0.28 in7.1 mm
02:30 PM 71.2°F21.8°C 58.4°F14.7°C 64% 4.3 mph WSW6.9 kmh WSW 10.0 mph16.1 kmh 29.89 in1012.2 mb 0.00 in0.0 mm 0.00 in0.0 mm 0.28 in7.1 mm
02:40 PM 71.2°F21.8°C 58.4°F14.7°C 64% 5.2 mph WSW8.4 kmh WSW 13.6 mph21.9 kmh 29.89 in1012.2 mb 0.00 in0.0 mm 0.00 in0.0 mm 0.28 in7.1 mm
02:50 PM 71.2°F21.8°C 58.9°F14.9°C 65% 5.2 mph SW8.4 kmh SW 12.9 mph20.8 kmh 29.89 in1012.2 mb 0.00 in0.0 mm 0.00 in0.0 mm 0.28 in7.1 mm
03:00 PM 71.1°F21.7°C 58.7°F14.8°C 65% 3.9 mph WSW6.3 kmh WSW 9.3 mph15.0 kmh 29.89 in1012.2 mb 0.00 in0.0 mm 0.00 in0.0 mm 0.28 in7.1 mm
03:10 PM 70.5°F21.4°C 58.2°F14.6°C 65% 4.0 mph NW6.4 kmh NW 9.7 mph15.6 kmh 29.89 in1012.2 mb 0.00 in0.0 mm 0.00 in0.0 mm 0.28 in7.1 mm
03:20 PM 70.3°F21.3°C 58.4°F14.7°C 66% 3.7 mph WSW6.0 kmh WSW 10.0 mph16.1 kmh 29.89 in1012.2 mb 0.00 in0.0 mm 0.00 in0.0 mm 0.28 in7.1 mm
03:30 PM 70.3°F21.3°C 58.4°F14.7°C 66% 3.5 mph SSW5.6 kmh SSW 10.4 mph16.7 kmh 29.89 in1012.2 mb 0.00 in0.0 mm 0.00 in0.0 mm 0.28 in7.1 mm
03:40 PM 69.8°F21.0°C 57.1°F13.9°C 64% 2.7 mph WNW4.3 kmh WNW 6.8 mph10.9 kmh 29.89 in1012.2 mb 0.00 in0.0 mm 0.00 in0.0 mm 0.28 in7.1 mm
03:50 PM 69.8°F21.0°C 57.5°F14.2°C 65% 2.7 mph NW4.3 kmh NW 6.4 mph10.3 kmh 29.86 in1011.2 mb 0.00 in0.0 mm 0.00 in0.0 mm 0.28 in7.1 mm
04:00 PM 70.0°F21.1°C 57.2°F14.0°C 64% 3.2 mph SW5.1 kmh SW 7.9 mph12.7 kmh 29.89 in1012.2 mb 0.00 in0.0 mm 0.00 in0.0 mm 0.28 in7.1 mm
04:10 PM 70.2°F21.2°C 57.8°F14.3°C 65% 1.3 mph SSW2.1 kmh SSW 7.5 mph12.1 kmh 29.89 in1012.2 mb 0.00 in0.0 mm 0.00 in0.0 mm 0.28 in7.1 mm
04:20 PM 70.0°F21.1°C 57.2°F14.0°C 64% 3.3 mph S5.3 kmh S 8.6 mph13.8 kmh 29.86 in1011.2 mb 0.00 in0.0 mm 0.00 in0.0 mm 0.28 in7.1 mm
04:30 PM 70.2°F21.2°C 57.4°F14.1°C 64% 2.2 mph SW3.5 kmh SW 6.1 mph9.8 kmh 29.86 in1011.2 mb 0.00 in0.0 mm 0.00 in0.0 mm 0.28 in7.1 mm
04:40 PM 70.0°F21.1°C 56.8°F13.8°C 63% 0.8 mph W1.3 kmh W 5.0 mph8.0 kmh 29.86 in1011.2 mb 0.00 in0.0 mm 0.00 in0.0 mm 0.28 in7.1 mm
04:50 PM 69.6°F20.9°C 56.9°F13.8°C 64% 2.0 mph WSW3.2 kmh WSW 5.0 mph8.0 kmh 29.89 in1012.2 mb 0.00 in0.0 mm 0.00 in0.0 mm 0.28 in7.1 mm
05:00 PM 69.4°F20.8°C 56.7°F13.7°C 64% 1.1 mph SW1.8 kmh SW 5.0 mph8.0 kmh 29.89 in1012.2 mb 0.00 in0.0 mm 0.00 in0.0 mm 0.28 in7.1 mm
05:10 PM 69.3°F20.7°C 57.0°F13.9°C 65% 0.1 mph S0.2 kmh S 2.5 mph4.0 kmh 29.89 in1012.2 mb 0.00 in0.0 mm 0.00 in0.0 mm 0.28 in7.1 mm
05:20 PM 69.3°F20.7°C 57.4°F14.1°C 66% 1.1 mph SSW1.8 kmh SSW 6.4 mph10.3 kmh 29.89 in1012.2 mb 0.00 in0.0 mm 0.00 in0.0 mm 0.28 in7.1 mm
05:30 PM 69.1°F20.6°C 57.7°F14.3°C 67% 2.9 mph WSW4.7 kmh WSW 7.2 mph11.6 kmh 29.89 in1012.2 mb 0.00 in0.0 mm 0.00 in0.0 mm 0.28 in7.1 mm
05:40 PM 68.9°F20.5°C 57.9°F14.4°C 68% 2.6 mph SW4.2 kmh SW 6.8 mph10.9 kmh 29.89 in1012.2 mb 0.00 in0.0 mm 0.00 in0.0 mm 0.28 in7.1 mm
05:50 PM 68.4°F20.2°C 57.4°F14.1°C 68% 2.6 mph S4.2 kmh S 8.6 mph13.8 kmh 29.89 in1012.2 mb 0.00 in0.0 mm 0.00 in0.0 mm 0.28 in7.1 mm
06:00 PM 67.6°F19.8°C 57.1°F13.9°C 69% 4.2 mph S6.8 kmh S 10.4 mph16.7 kmh 29.89 in1012.2 mb 0.00 in0.0 mm 0.00 in0.0 mm 0.28 in7.1 mm
06:10 PM 67.1°F19.5°C 57.4°F14.1°C 71% 4.9 mph S7.9 kmh S 10.0 mph16.1 kmh 29.89 in1012.2 mb 0.00 in0.0 mm 0.00 in0.0 mm 0.28 in7.1 mm
06:20 PM 66.7°F19.3°C 57.0°F13.9°C 71% 3.6 mph S5.8 kmh S 8.6 mph13.8 kmh 29.89 in1012.2 mb 0.00 in0.0 mm 0.00 in0.0 mm 0.28 in7.1 mm
06:30 PM 66.4°F19.1°C 56.7°F13.7°C 71% 4.2 mph S6.8 kmh S 9.7 mph15.6 kmh 29.92 in1013.2 mb 0.00 in0.0 mm 0.00 in0.0 mm 0.28 in7.1 mm
06:40 PM 66.2°F19.0°C 56.9°F13.8°C 72% 2.2 mph S3.5 kmh S 7.9 mph12.7 kmh 29.92 in1013.2 mb 0.00 in0.0 mm 0.00 in0.0 mm 0.28 in7.1 mm
06:50 PM 65.8°F18.8°C 57.3°F14.1°C 74% 1.5 mph S2.4 kmh S 5.4 mph8.7 kmh 29.89 in1012.2 mb 0.00 in0.0 mm 0.00 in0.0 mm 0.28 in7.1 mm
07:00 PM 65.5°F18.6°C 57.0°F13.9°C 74% 0.5 mph S0.8 kmh S 3.9 mph6.3 kmh 29.89 in1012.2 mb 0.00 in0.0 mm 0.00 in0.0 mm 0.28 in7.1 mm
07:10 PM 65.1°F18.4°C 56.6°F13.7°C 74% Calm Calm -- 29.89 in1012.2 mb 0.00 in0.0 mm 0.00 in0.0 mm 0.28 in7.1 mm
07:20 PM 64.6°F18.1°C 56.1°F13.4°C 74% 0.3 mph SE0.5 kmh SE 2.1 mph3.4 kmh 29.89 in1012.2 mb 0.00 in0.0 mm 0.00 in0.0 mm 0.28 in7.1 mm
07:30 PM 64.0°F17.8°C 56.0°F13.3°C 75% Calm Calm -- 29.89 in1012.2 mb 0.00 in0.0 mm 0.00 in0.0 mm 0.28 in7.1 mm
07:40 PM 63.3°F17.4°C 55.6°F13.1°C 76% 0.7 mph SE1.1 kmh SE 5.4 mph8.7 kmh 29.89 in1012.2 mb 0.00 in0.0 mm 0.00 in0.0 mm 0.28 in7.1 mm
07:50 PM 63.0°F17.2°C 55.6°F13.1°C 77% 2.0 mph SE3.2 kmh SE 5.7 mph9.2 kmh 29.89 in1012.2 mb 0.00 in0.0 mm 0.00 in0.0 mm 0.28 in7.1 mm
08:00 PM 62.6°F17.0°C 55.6°F13.1°C 78% 0.2 mph SSE0.3 kmh SSE 3.6 mph5.8 kmh 29.89 in1012.2 mb 0.00 in0.0 mm 0.00 in0.0 mm 0.28 in7.1 mm
08:10 PM 62.4°F16.9°C 55.8°F13.2°C 79% 0.8 mph SSE1.3 kmh SSE 4.7 mph7.6 kmh 29.89 in1012.2 mb 0.00 in0.0 mm 0.00 in0.0 mm 0.28 in7.1 mm
08:20 PM 62.2°F16.8°C 56.0°F13.3°C 80% 2.3 mph SE3.7 kmh SE 6.1 mph9.8 kmh 29.89 in1012.2 mb 0.00 in0.0 mm 0.00 in0.0 mm 0.28 in7.1 mm
08:30 PM 61.7°F16.5°C 55.5°F13.1°C 80% Calm Calm -- 29.89 in1012.2 mb 0.00 in0.0 mm 0.00 in0.0 mm 0.28 in7.1 mm
08:40 PM 61.3°F16.3°C 55.1°F12.8°C 80% Calm Calm -- 29.89 in1012.2 mb 0.00 in0.0 mm 0.00 in0.0 mm 0.28 in7.1 mm
08:50 PM 60.8°F16.0°C 54.6°F12.6°C 80% Calm Calm -- 29.89 in1012.2 mb 0.00 in0.0 mm 0.00 in0.0 mm 0.28 in7.1 mm
09:00 PM 60.4°F15.8°C 54.6°F12.6°C 81% Calm Calm -- 29.89 in1012.2 mb 0.00 in0.0 mm 0.00 in0.0 mm 0.28 in7.1 mm
09:10 PM 60.1°F15.6°C 54.2°F12.3°C 81% 0.4 mph E0.6 kmh E 1.8 mph2.9 kmh 29.89 in1012.2 mb 0.00 in0.0 mm 0.00 in0.0 mm 0.28 in7.1 mm
09:20 PM 59.5°F15.3°C 54.0°F12.2°C 82% Calm Calm -- 29.89 in1012.2 mb 0.00 in0.0 mm 0.00 in0.0 mm 0.28 in7.1 mm
09:30 PM 59.0°F15.0°C 53.5°F11.9°C 82% Calm Calm -- 29.89 in1012.2 mb 0.00 in0.0 mm 0.00 in0.0 mm 0.28 in7.1 mm
09:40 PM 58.6°F14.8°C 53.2°F11.8°C 82% Calm Calm -- 29.89 in1012.2 mb 0.00 in0.0 mm 0.00 in0.0 mm 0.28 in7.1 mm
09:50 PM 58.5°F14.7°C 53.3°F11.8°C 83% 0.8 mph E1.3 kmh E 4.7 mph7.6 kmh 29.89 in1012.2 mb 0.00 in0.0 mm 0.00 in0.0 mm 0.28 in7.1 mm
10:00 PM 58.5°F14.7°C 53.6°F12.0°C 84% Calm Calm -- 29.86 in1011.2 mb 0.00 in0.0 mm 0.00 in0.0 mm 0.28 in7.1 mm
10:10 PM 58.1°F14.5°C 53.3°F11.8°C 84% Calm Calm -- 29.86 in1011.2 mb 0.00 in0.0 mm 0.00 in0.0 mm 0.28 in7.1 mm
10:20 PM 58.3°F14.6°C 53.8°F12.1°C 85% 0.2 mph E0.3 kmh E 2.1 mph3.4 kmh 29.83 in1010.2 mb 0.00 in0.0 mm 0.00 in0.0 mm 0.28 in7.1 mm
10:30 PM 58.5°F14.7°C 54.3°F12.4°C 86% Calm Calm -- 29.83 in1010.2 mb 0.00 in0.0 mm 0.00 in0.0 mm 0.28 in7.1 mm
10:40 PM 58.6°F14.8°C 54.8°F12.7°C 87% Calm Calm -- 29.83 in1010.2 mb 0.00 in0.0 mm 0.00 in0.0 mm 0.28 in7.1 mm
10:50 PM 58.8°F14.9°C 55.0°F12.8°C 87% Calm Calm -- 29.83 in1010.2 mb 0.00 in0.0 mm 0.00 in0.0 mm 0.28 in7.1 mm
11:00 PM 59.0°F15.0°C 55.1°F12.8°C 87% Calm Calm -- 29.86 in1011.2 mb 0.00 in0.0 mm 0.00 in0.0 mm 0.28 in7.1 mm
11:10 PM 58.8°F14.9°C 55.0°F12.8°C 87% Calm Calm -- 29.86 in1011.2 mb 0.00 in0.0 mm 0.00 in0.0 mm 0.28 in7.1 mm
11:20 PM 58.5°F14.7°C 54.6°F12.6°C 87% Calm Calm -- 29.86 in1011.2 mb 0.00 in0.0 mm 0.00 in0.0 mm 0.28 in7.1 mm
11:30 PM 58.1°F14.5°C 54.2°F12.3°C 87% Calm Calm -- 29.83 in1010.2 mb 0.00 in0.0 mm 0.00 in0.0 mm 0.28 in7.1 mm
11:40 PM 58.1°F14.5°C 54.2°F12.3°C 87% 0.9 mph E1.4 kmh E 3.2 mph5.1 kmh 29.83 in1010.2 mb 0.00 in0.0 mm 0.00 in0.0 mm 0.28 in7.1 mm
11:50 PM 58.5°F14.7°C 54.9°F12.7°C 88% 0.2 mph E0.3 kmh E 3.2 mph5.1 kmh 29.83 in1010.2 mb 0.00 in0.0 mm 0.00 in0.0 mm 0.28 in7.1 mm